Time;durP1;ratioP1;P1;durP2;ratioP2;P2;SDS_P1;SDS_P2;PMS_P1;PMS_P2;Temp;Humidity;BMP_temperature;BMP_pressure;BME280_temperature;BME280_humidity;BME280_pressure;Samples;Min_cycle;Max_cycle;Signal;HPM_P1;HPM_P2
2022/01/30 00:01:45;;;;;;;0.50;0.50;;;9.30;99.90;;;;;;5063148;28;20200;-79
2022/01/30 00:04:10;;;;;;;2.13;0.50;;;9.30;99.90;;;;;;5061520;28;20182;-78
2022/01/30 00:06:37;;;;;;;1.40;1.37;;;9.30;99.90;;;;;;5062037;28;20209;-79
2022/01/30 00:09:03;;;;;;;1.90;1.80;;;9.30;99.90;;;;;;5062966;28;20179;-79
2022/01/30 00:11:33;;;;;;;0.40;0.40;;;9.30;99.90;;;;;;5063307;28;20216;-79
2022/01/30 00:14:01;;;;;;;0.20;0.20;;;9.30;99.90;;;;;;5064369;28;20236;-79
2022/01/30 00:16:32;;;;;;;0.10;0.10;;;9.30;99.90;;;;;;5063044;28;20697;-79
2022/01/30 00:19:09;;;;;;;0.30;0.20;;;9.30;99.90;;;;;;5064514;28;20543;-78
2022/01/30 00:21:40;;;;;;;1.37;0.37;;;9.20;99.90;;;;;;5065392;28;20200;-78
2022/01/30 00:24:12;;;;;;;0.10;0.10;;;9.20;99.90;;;;;;5068325;28;20208;-78
2022/01/30 00:26:40;;;;;;;0.30;0.30;;;9.10;99.90;;;;;;5068866;28;20538;-78
2022/01/30 00:29:05;;;;;;;0.17;0.17;;;9.10;99.90;;;;;;5067474;28;20189;-78
2022/01/30 00:31:32;;;;;;;0.10;0.10;;;9.10;99.90;;;;;;5067933;28;20214;-78
2022/01/30 00:33:59;;;;;;;0.43;0.43;;;9.20;99.90;;;;;;5068672;28;20171;-78
2022/01/30 00:36:26;;;;;;;1.13;0.73;;;9.20;99.90;;;;;;5069754;28;20187;-78
2022/01/30 00:38:51;;;;;;;0.10;0.10;;;9.20;99.90;;;;;;5069161;28;20576;-80
2022/01/30 00:41:17;;;;;;;0.10;0.10;;;9.20;99.90;;;;;;5066562;28;20207;-78
2022/01/30 00:43:43;;;;;;;2.57;0.47;;;9.10;99.90;;;;;;5067276;28;20275;-78
2022/01/30 00:46:08;;;;;;;0.53;0.13;;;9.10;99.90;;;;;;5065471;28;20198;-78
2022/01/30 00:48:34;;;;;;;0.20;0.20;;;9.10;99.90;;;;;;5066034;28;20179;-78
2022/01/30 00:50:59;;;;;;;0.37;0.37;;;9.10;99.90;;;;;;5066074;28;20271;-78
2022/01/30 00:53:26;;;;;;;0.40;0.40;;;9.10;99.90;;;;;;5064845;28;20186;-78
2022/01/30 00:55:51;;;;;;;0.10;0.10;;;9.10;99.90;;;;;;5066375;28;20281;-78
2022/01/30 00:58:17;;;;;;;0.20;0.20;;;9.20;99.90;;;;;;5065514;28;20272;-78
2022/01/30 01:00:42;;;;;;;1.00;0.87;;;9.20;99.90;;;;;;5065263;28;20201;-78
2022/01/30 01:03:08;;;;;;;2.43;1.10;;;9.20;99.90;;;;;;5064154;28;20186;-78
2022/01/30 01:05:35;;;;;;;0.90;0.90;;;9.10;99.90;;;;;;5064060;28;20205;-78
2022/01/30 01:08:10;;;;;;;2.43;1.03;;;9.20;99.90;;;;;;5063676;28;21016;-78
2022/01/30 01:10:50;;;;;;;0.73;0.20;;;9.20;99.90;;;;;;5062462;28;20205;-78
2022/01/30 01:13:45;;;;;;;0.10;0.10;;;9.10;99.90;;;;;;5059529;28;20531;-78
2022/01/30 01:24:06;;;;;;;0.10;0.10;;;9.10;99.90;;;;;;5065093;28;20183;-78
2022/01/30 01:26:32;;;;;;;0.30;0.23;;;9.10;99.90;;;;;;5064741;28;20221;-77
2022/01/30 01:28:57;;;;;;;3.40;0.30;;;9.10;99.90;;;;;;5064479;28;20214;-77
2022/01/30 01:31:23;;;;;;;1.40;0.50;;;9.00;99.90;;;;;;5065285;28;20291;-78
2022/01/30 01:36:35;;;;;;;0.20;0.20;;;9.00;99.90;;;;;;5064828;28;20236;-77
2022/01/30 01:39:01;;;;;;;0.10;0.10;;;9.00;99.90;;;;;;5065447;28;20560;-78
2022/01/30 01:41:29;;;;;;;0.10;0.10;;;9.00;99.90;;;;;;5067268;28;20219;-78
2022/01/30 01:43:54;;;;;;;0.90;0.73;;;9.00;99.90;;;;;;5064179;28;20182;-77
2022/01/30 01:46:27;;;;;;;0.93;0.40;;;8.90;99.90;;;;;;5064568;28;20186;-78
2022/01/30 01:48:53;;;;;;;0.20;0.20;;;8.90;99.90;;;;;;5064077;28;20172;-78
2022/01/30 01:51:25;;;;;;;0.80;0.50;;;8.90;99.90;;;;;;5063168;28;20298;-77
2022/01/30 01:53:53;;;;;;;0.10;0.10;;;8.80;99.90;;;;;;5065350;28;20187;-78
2022/01/30 01:56:19;;;;;;;0.10;0.10;;;8.80;99.90;;;;;;5062744;28;20235;-78
2022/01/30 01:58:45;;;;;;;1.97;0.43;;;8.80;99.90;;;;;;5064305;28;20558;-78
2022/01/30 02:01:11;;;;;;;0.20;0.20;;;8.70;99.90;;;;;;5065134;28;20198;-78
2022/01/30 02:03:38;;;;;;;2.43;1.60;;;8.70;99.90;;;;;;5064512;28;20177;-78
2022/01/30 02:06:06;;;;;;;1.40;0.50;;;8.60;99.90;;;;;;5064025;28;20682;-78
2022/01/30 02:08:38;;;;;;;0.10;0.10;;;8.50;99.90;;;;;;5062395;28;20191;-79
2022/01/30 02:24:32;;;;;;;1.13;0.27;;;8.50;99.90;;;;;;5064287;28;20213;-78
2022/01/30 02:26:58;;;;;;;0.63;0.63;;;8.40;99.90;;;;;;5064033;28;20172;-78
2022/01/30 02:29:23;;;;;;;0.10;0.10;;;8.40;99.90;;;;;;5064600;28;20315;-79
2022/01/30 02:31:49;;;;;;;0.50;0.50;;;8.40;99.90;;;;;;5063580;28;20212;-79
2022/01/30 02:34:14;;;;;;;0.57;0.47;;;8.40;99.90;;;;;;5063985;28;20185;-78
2022/01/30 02:36:50;;;;;;;3.10;2.33;;;8.40;99.90;;;;;;5064682;28;20243;-78
2022/01/30 02:39:17;;;;;;;0.20;0.10;;;8.40;99.90;;;;;;5061115;28;20186;-78
2022/01/30 02:41:43;;;;;;;1.10;1.03;;;8.40;99.90;;;;;;5063749;28;20214;-79
2022/01/30 02:46:39;;;;;;;0.10;0.10;;;8.30;99.90;;;;;;5062836;28;20191;-79
2022/01/30 02:51:52;;;;;;;0.10;0.10;;;8.20;99.90;;;;;;5064839;28;20214;-79
2022/01/30 02:54:18;;;;;;;0.10;0.10;;;8.20;99.90;;;;;;5062072;28;20170;-79
2022/01/30 02:56:43;;;;;;;0.93;0.40;;;8.20;99.90;;;;;;5064476;28;20185;-79
2022/01/30 02:59:10;;;;;;;3.60;1.23;;;8.20;99.90;;;;;;5062844;28;20222;-79
2022/01/30 03:01:36;;;;;;;1.43;0.30;;;8.20;99.90;;;;;;5063770;28;20242;-79
2022/01/30 03:04:02;;;;;;;0.10;0.10;;;8.10;99.90;;;;;;5063664;28;20786;-78
2022/01/30 03:06:28;;;;;;;0.00;0.00;;;8.00;99.90;;;;;;5061852;28;20194;-79
2022/01/30 03:08:53;;;;;;;0.30;0.30;;;7.90;99.90;;;;;;5065213;28;20865;-78
2022/01/30 03:11:19;;;;;;;0.20;0.20;;;7.90;99.90;;;;;;5064029;28;20205;-79
2022/01/30 03:13:45;;;;;;;0.10;0.10;;;7.80;99.90;;;;;;5064567;28;20191;-79
2022/01/30 03:16:10;;;;;;;0.10;0.10;;;7.90;99.90;;;;;;5063328;28;20180;-79
2022/01/30 03:18:36;;;;;;;1.00;0.57;;;7.80;99.90;;;;;;5063087;28;20181;-79
2022/01/30 03:21:02;;;;;;;1.50;0.40;;;7.80;99.90;;;;;;5062195;28;20313;-78
2022/01/30 03:23:29;;;;;;;0.30;0.30;;;7.80;99.90;;;;;;5063319;28;20211;-79
2022/01/30 03:25:58;;;;;;;0.20;0.20;;;7.80;99.90;;;;;;5062866;28;20222;-78
2022/01/30 03:28:24;;;;;;;0.27;0.27;;;7.70;99.90;;;;;;5062821;28;20188;-78
2022/01/30 03:30:54;;;;;;;2.73;0.40;;;7.70;99.90;;;;;;5064076;28;20200;-78
2022/01/30 03:33:20;;;;;;;0.20;0.20;;;7.70;99.90;;;;;;5062738;28;20181;-79
2022/01/30 03:35:46;;;;;;;0.10;0.10;;;7.60;99.90;;;;;;5062718;28;20191;-78
2022/01/30 03:38:14;;;;;;;0.20;0.20;;;7.60;99.90;;;;;;5060438;28;20173;-79
2022/01/30 03:40:39;;;;;;;0.10;0.10;;;7.70;99.90;;;;;;5062062;28;20208;-79
2022/01/30 03:43:05;;;;;;;0.57;0.27;;;7.60;99.90;;;;;;5063509;28;20177;-79
2022/01/30 03:45:31;;;;;;;0.10;0.10;;;7.60;99.90;;;;;;5062845;28;20188;-79
2022/01/30 03:47:56;;;;;;;1.10;0.73;;;7.60;99.90;;;;;;5063585;28;20186;-79
2022/01/30 03:50:22;;;;;;;0.90;0.57;;;7.60;99.90;;;;;;5063870;28;20284;-78
2022/01/30 03:52:48;;;;;;;1.60;0.50;;;7.60;99.90;;;;;;5062794;28;20288;-79
2022/01/30 03:55:14;;;;;;;0.30;0.30;;;7.60;99.90;;;;;;5061856;28;20217;-79
2022/01/30 03:57:39;;;;;;;0.30;0.30;;;7.60;99.90;;;;;;5065687;28;20288;-78
2022/01/30 04:00:07;;;;;;;0.43;0.20;;;7.60;99.90;;;;;;5067338;28;20792;-79
2022/01/30 04:02:32;;;;;;;0.10;0.10;;;7.60;99.90;;;;;;5066623;28;20550;-78
2022/01/30 04:04:58;;;;;;;0.10;0.10;;;7.50;99.90;;;;;;5075182;28;20184;-80
2022/01/30 04:07:24;;;;;;;0.63;0.57;;;7.50;99.90;;;;;;5066787;28;20646;-80
2022/01/30 04:09:50;;;;;;;0.83;0.83;;;7.50;99.90;;;;;;5066840;28;20192;-79
2022/01/30 04:12:16;;;;;;;0.20;0.10;;;7.50;99.90;;;;;;5066355;28;21007;-79
2022/01/30 04:14:42;;;;;;;0.10;0.10;;;7.40;99.90;;;;;;5066088;28;20183;-79
2022/01/30 04:17:13;;;;;;;0.30;0.30;;;7.40;99.90;;;;;;5066829;28;20178;-78
2022/01/30 04:19:38;;;;;;;0.00;0.00;;;7.40;99.90;;;;;;5052794;28;20165;-78
2022/01/30 04:22:04;;;;;;;3.63;1.23;;;7.40;99.90;;;;;;5061315;28;20216;-79
2022/01/30 04:24:30;;;;;;;0.10;0.10;;;7.40;99.90;;;;;;5057149;28;20236;-78
2022/01/30 04:26:55;;;;;;;1.40;0.37;;;7.40;99.90;;;;;;5063399;28;20285;-78
2022/01/30 04:29:21;;;;;;;0.60;0.60;;;7.40;99.90;;;;;;5064861;28;20194;-78
2022/01/30 04:31:49;;;;;;;1.37;1.13;;;7.40;99.90;;;;;;5064968;28;20690;-78
2022/01/30 04:34:15;;;;;;;0.10;0.10;;;7.40;99.90;;;;;;5064226;28;20188;-78
2022/01/30 04:36:43;;;;;;;0.10;0.10;;;7.40;99.90;;;;;;5066265;28;20173;-77
2022/01/30 04:39:33;;;;;;;0.73;0.73;;;7.30;99.90;;;;;;5067435;28;20182;-78
2022/01/30 04:56:22;;;;;;;0.10;0.10;;;7.20;99.90;;;;;;5066061;28;20584;-78
2022/01/30 04:58:29;;;;;;;0.10;0.10;;;7.10;99.90;;;;;;5065125;28;20238;-77
2022/01/30 05:05:59;;;;;;;0.10;0.10;;;7.00;99.90;;;;;;5066356;28;20519;-78
2022/01/30 05:08:25;;;;;;;0.20;0.20;;;7.00;99.90;;;;;;5064528;28;20585;-78
2022/01/30 05:10:53;;;;;;;0.10;0.10;;;6.90;99.90;;;;;;5063147;28;20224;-78
2022/01/30 05:13:22;;;;;;;1.07;1.07;;;7.00;99.90;;;;;;5065352;28;20187;-77
2022/01/30 05:15:47;;;;;;;0.63;0.50;;;6.90;99.90;;;;;;5062750;28;20177;-77
2022/01/30 05:18:19;;;;;;;3.00;0.30;;;6.90;99.90;;;;;;5064752;28;20191;-77
2022/01/30 05:20:44;;;;;;;0.53;0.53;;;6.80;99.90;;;;;;5065006;28;20223;-77
2022/01/30 05:23:10;;;;;;;0.30;0.30;;;6.80;99.90;;;;;;5067515;28;20181;-77
2022/01/30 05:25:37;;;;;;;0.70;0.70;;;6.70;99.90;;;;;;5064685;28;20180;-78
2022/01/30 05:28:06;;;;;;;0.53;0.30;;;6.80;99.90;;;;;;5065891;28;20562;-79
2022/01/30 05:30:33;;;;;;;7.53;1.23;;;6.80;99.90;;;;;;5065460;28;20877;-78
2022/01/30 05:32:59;;;;;;;0.10;0.10;;;6.80;99.90;;;;;;5063941;28;20204;-78
2022/01/30 05:35:25;;;;;;;0.33;0.33;;;6.70;99.90;;;;;;5066248;28;20177;-78
2022/01/30 05:37:51;;;;;;;0.33;0.17;;;6.70;99.90;;;;;;5061292;28;20183;-78
2022/01/30 05:40:17;;;;;;;0.03;0.03;;;6.70;99.90;;;;;;5065722;28;21152;-78
2022/01/30 05:42:43;;;;;;;0.10;0.10;;;6.80;99.90;;;;;;5062990;28;20659;-78
2022/01/30 05:45:45;;;;;;;0.63;0.37;;;6.70;99.90;;;;;;5065587;28;20189;-77
2022/01/30 05:48:09;;;;;;;1.10;0.63;;;6.80;99.90;;;;;;5062043;28;20589;-79
2022/01/30 05:50:35;;;;;;;0.20;0.20;;;6.80;99.90;;;;;;5064673;28;20204;-78
2022/01/30 05:53:01;;;;;;;0.77;0.77;;;6.80;99.90;;;;;;5063937;28;20210;-78
2022/01/30 05:55:26;;;;;;;0.70;0.57;;;6.80;99.90;;;;;;5065262;28;20374;-78
2022/01/30 05:57:52;;;;;;;0.10;0.10;;;6.80;99.90;;;;;;5067047;28;20178;-77
2022/01/30 06:00:18;;;;;;;0.20;0.20;;;6.80;99.90;;;;;;5064649;28;20216;-78
2022/01/30 06:02:45;;;;;;;0.03;0.03;;;6.80;99.90;;;;;;5065014;28;20191;-78
2022/01/30 06:05:14;;;;;;;0.30;0.30;;;6.80;99.90;;;;;;5064130;28;20191;-78
2022/01/30 06:07:48;;;;;;;2.50;1.17;;;6.80;99.90;;;;;;5064843;28;20181;-78
2022/01/30 06:10:13;;;;;;;1.47;1.23;;;6.80;99.90;;;;;;5064339;28;20228;-78
2022/01/30 06:12:39;;;;;;;1.03;0.20;;;6.80;99.90;;;;;;5065149;28;20203;-78
2022/01/30 06:15:05;;;;;;;1.53;0.30;;;6.80;99.90;;;;;;5065531;28;20546;-78
2022/01/30 06:17:31;;;;;;;0.30;0.30;;;6.80;99.90;;;;;;5064728;28;20187;-78
2022/01/30 06:19:56;;;;;;;0.10;0.10;;;6.80;99.90;;;;;;5064587;28;20759;-79
2022/01/30 06:22:22;;;;;;;0.50;0.17;;;6.80;99.90;;;;;;5064182;28;20191;-79
2022/01/30 06:24:47;;;;;;;0.30;0.30;;;6.80;99.90;;;;;;5065595;28;20192;-80
2022/01/30 06:27:13;;;;;;;0.10;0.10;;;6.80;99.90;;;;;;5060390;28;20779;-79
2022/01/30 06:29:39;;;;;;;0.10;0.10;;;6.90;99.90;;;;;;5063938;28;20192;-80
2022/01/30 06:32:05;;;;;;;0.50;0.50;;;6.80;99.90;;;;;;5063219;28;20236;-78
2022/01/30 06:34:31;;;;;;;1.63;0.87;;;6.80;99.90;;;;;;5064072;28;20264;-79
2022/01/30 06:36:56;;;;;;;0.57;0.50;;;6.80;99.90;;;;;;5064215;28;20682;-79
2022/01/30 06:39:22;;;;;;;2.70;0.93;;;6.80;99.90;;;;;;5064482;28;20212;-78
2022/01/30 06:41:47;;;;;;;0.10;0.10;;;6.80;99.90;;;;;;5062053;28;20576;-79
2022/01/30 06:44:13;;;;;;;0.00;0.00;;;6.80;99.90;;;;;;5061504;28;20561;-78
2022/01/30 06:46:38;;;;;;;0.10;0.10;;;6.80;99.90;;;;;;5064320;28;20260;-78
2022/01/30 06:49:04;;;;;;;0.77;0.40;;;6.80;99.90;;;;;;5063570;28;20196;-79
2022/01/30 06:51:30;;;;;;;1.23;0.53;;;6.80;99.90;;;;;;5063219;28;20208;-78
2022/01/30 06:53:55;;;;;;;0.20;0.20;;;6.80;99.90;;;;;;5063950;28;20186;-78
2022/01/30 06:56:21;;;;;;;0.23;0.10;;;6.70;99.90;;;;;;5063904;28;20207;-78
2022/01/30 06:58:46;;;;;;;0.20;0.20;;;6.70;99.90;;;;;;5063001;28;20776;-78
2022/01/30 07:01:12;;;;;;;0.40;0.40;;;6.70;99.90;;;;;;5062237;28;20585;-79
2022/01/30 07:03:37;;;;;;;0.00;0.00;;;6.60;99.90;;;;;;5062308;28;20192;-78
2022/01/30 07:06:03;;;;;;;0.53;0.37;;;6.60;99.90;;;;;;5063645;28;20183;-78
2022/01/30 07:08:28;;;;;;;0.27;0.27;;;6.70;99.90;;;;;;5061272;28;20184;-77
2022/01/30 07:10:54;;;;;;;0.00;0.00;;;6.70;99.90;;;;;;5063803;28;20203;-78
2022/01/30 07:13:19;;;;;;;0.10;0.10;;;6.70;99.90;;;;;;5065052;28;20271;-78
2022/01/30 07:15:45;;;;;;;0.10;0.10;;;6.70;99.90;;;;;;5064175;28;20196;-78
2022/01/30 07:18:11;;;;;;;0.10;0.10;;;6.70;99.90;;;;;;5062401;28;20239;-78
2022/01/30 07:20:37;;;;;;;0.20;0.20;;;6.70;99.90;;;;;;5065431;28;20242;-77
2022/01/30 07:23:03;;;;;;;0.37;0.37;;;6.80;99.90;;;;;;5061643;28;20185;-77
2022/01/30 07:25:28;;;;;;;0.20;0.20;;;6.80;99.90;;;;;;5058931;28;20188;-77
2022/01/30 07:27:54;;;;;;;0.10;0.10;;;6.90;99.90;;;;;;5063812;28;20180;-77
2022/01/30 07:30:19;;;;;;;6.23;2.00;;;6.90;99.90;;;;;;5065259;28;20250;-77
2022/01/30 07:32:45;;;;;;;0.17;0.17;;;6.90;99.90;;;;;;5065408;28;20300;-79
2022/01/30 07:35:10;;;;;;;0.10;0.10;;;6.80;99.90;;;;;;5066769;28;20187;-79
2022/01/30 07:37:36;;;;;;;0.20;0.20;;;6.90;99.90;;;;;;5066962;28;20189;-78
2022/01/30 07:40:04;;;;;;;0.10;0.10;;;7.00;99.90;;;;;;5066004;28;20176;-78
2022/01/30 07:42:30;;;;;;;0.10;0.10;;;6.90;99.90;;;;;;5068152;28;20605;-78
2022/01/30 07:44:55;;;;;;;0.47;0.47;;;7.00;99.90;;;;;;5069776;28;20224;-78
2022/01/30 07:47:22;;;;;;;0.73;0.20;;;6.90;99.90;;;;;;5068270;28;20283;-78
2022/01/30 07:49:51;;;;;;;9.83;0.47;;;6.90;99.90;;;;;;5070254;28;20181;-78
2022/01/30 07:52:19;;;;;;;0.10;0.10;;;6.90;99.90;;;;;;5069098;28;20713;-77
2022/01/30 07:54:45;;;;;;;0.10;0.10;;;7.00;99.90;;;;;;5068164;28;20183;-78
2022/01/30 07:57:10;;;;;;;0.63;0.63;;;7.00;99.90;;;;;;5067662;28;20599;-78
2022/01/30 07:59:36;;;;;;;2.20;0.67;;;6.90;99.90;;;;;;5067279;28;20197;-77
2022/01/30 08:02:02;;;;;;;0.10;0.10;;;7.00;99.90;;;;;;5066704;28;20209;-78
2022/01/30 08:04:28;;;;;;;0.23;0.23;;;7.00;99.90;;;;;;5065099;28;20223;-78
2022/01/30 08:06:54;;;;;;;1.00;0.97;;;7.00;99.90;;;;;;5062787;28;20181;-78
2022/01/30 08:09:20;;;;;;;3.10;0.30;;;7.10;99.90;;;;;;5065981;28;20193;-78
2022/01/30 08:11:45;;;;;;;0.13;0.13;;;7.10;99.90;;;;;;5066863;28;20704;-78
2022/01/30 08:14:12;;;;;;;0.33;0.33;;;7.20;99.90;;;;;;5065730;28;20217;-79
2022/01/30 08:16:38;;;;;;;0.00;0.00;;;7.20;99.90;;;;;;5066967;28;20256;-78
2022/01/30 08:19:04;;;;;;;0.43;0.43;;;7.10;99.90;;;;;;5059989;28;20190;-78
2022/01/30 08:21:29;;;;;;;0.10;0.10;;;7.20;99.90;;;;;;5060611;28;20220;-78
2022/01/30 08:23:55;;;;;;;2.23;0.40;;;7.20;99.90;;;;;;5063948;28;20190;-79
2022/01/30 08:26:21;;;;;;;0.10;0.10;;;7.20;99.90;;;;;;5067692;28;20196;-79
2022/01/30 08:28:46;;;;;;;1.60;0.63;;;7.20;99.90;;;;;;5070827;28;20181;-78
2022/01/30 08:31:12;;;;;;;0.10;0.10;;;7.30;99.90;;;;;;5064658;28;20212;-78
2022/01/30 08:33:37;;;;;;;0.10;0.10;;;7.20;99.90;;;;;;5065093;28;20204;-78
2022/01/30 08:36:03;;;;;;;0.10;0.10;;;7.20;99.90;;;;;;5063125;28;20185;-78
2022/01/30 08:38:28;;;;;;;0.30;0.30;;;7.20;99.90;;;;;;5067484;28;20666;-79
2022/01/30 08:40:54;;;;;;;3.23;0.20;;;7.30;99.90;;;;;;5064907;28;21022;-79
2022/01/30 08:43:21;;;;;;;0.10;0.10;;;7.30;99.90;;;;;;5062942;28;20604;-80
2022/01/30 08:45:51;;;;;;;0.10;0.10;;;7.30;99.90;;;;;;5065331;28;20724;-79
2022/01/30 08:48:18;;;;;;;2.10;0.70;;;7.30;99.90;;;;;;5064917;28;20205;-79
2022/01/30 08:50:44;;;;;;;0.10;0.10;;;7.30;99.90;;;;;;5063743;28;20562;-81
2022/01/30 08:53:10;;;;;;;0.13;0.13;;;7.40;99.90;;;;;;5065003;28;20242;-79
2022/01/30 08:55:36;;;;;;;0.00;0.00;;;7.30;99.90;;;;;;5061372;28;20209;-81
2022/01/30 08:58:07;;;;;;;0.07;0.07;;;7.40;99.90;;;;;;5065751;28;20181;-79
2022/01/30 09:00:35;;;;;;;0.10;0.10;;;7.40;99.90;;;;;;5064284;28;20580;-79
2022/01/30 09:03:03;;;;;;;0.63;0.63;;;7.30;99.90;;;;;;5064768;28;20192;-79
2022/01/30 09:05:30;;;;;;;0.00;0.00;;;7.40;99.90;;;;;;5061731;28;20181;-79
2022/01/30 09:07:56;;;;;;;0.10;0.10;;;7.40;99.90;;;;;;5065889;28;20188;-79
2022/01/30 09:10:21;;;;;;;0.20;0.20;;;7.40;99.90;;;;;;5063090;28;20204;-79
2022/01/30 09:12:47;;;;;;;0.10;0.10;;;7.40;99.90;;;;;;5064868;28;20228;-79
2022/01/30 09:15:15;;;;;;;2.93;0.23;;;7.40;99.90;;;;;;5064327;28;20650;-79
2022/01/30 09:17:41;;;;;;;0.10;0.10;;;7.50;99.90;;;;;;5063677;28;20265;-79
2022/01/30 09:20:07;;;;;;;0.10;0.10;;;7.50;99.90;;;;;;5064765;28;20267;-78
2022/01/30 09:22:33;;;;;;;0.70;0.60;;;7.70;99.90;;;;;;5063627;28;20330;-79
2022/01/30 09:24:58;;;;;;;0.10;0.10;;;7.70;99.90;;;;;;5065169;28;20200;-79
2022/01/30 09:27:24;;;;;;;0.77;0.30;;;7.80;99.90;;;;;;5061910;28;20288;-79
2022/01/30 09:29:50;;;;;;;0.10;0.10;;;7.70;99.90;;;;;;5064168;28;21100;-79
2022/01/30 09:32:16;;;;;;;0.23;0.23;;;7.70;99.90;;;;;;5069798;28;20219;-80
2022/01/30 09:34:41;;;;;;;0.10;0.10;;;7.60;99.90;;;;;;5066770;28;20191;-79
2022/01/30 09:37:08;;;;;;;1.00;0.63;;;7.60;99.90;;;;;;5068652;28;20197;-80
2022/01/30 09:39:34;;;;;;;0.40;0.40;;;7.60;99.90;;;;;;5066645;28;20277;-78
2022/01/30 09:42:00;;;;;;;0.97;0.43;;;7.70;99.90;;;;;;5065766;28;20201;-78
2022/01/30 09:44:26;;;;;;;3.10;0.27;;;7.70;99.90;;;;;;5066296;28;20209;-82
2022/01/30 09:46:52;;;;;;;0.10;0.10;;;7.70;99.90;;;;;;5073527;28;20185;-79
2022/01/30 09:49:28;;;;;;;0.10;0.10;;;7.70;99.90;;;;;;5066859;28;20637;-79
2022/01/30 09:51:54;;;;;;;1.13;0.50;;;7.80;99.90;;;;;;5070372;28;20212;-79
2022/01/30 09:54:19;;;;;;;0.20;0.20;;;7.80;99.90;;;;;;5071094;28;20528;-79
2022/01/30 09:56:45;;;;;;;0.10;0.10;;;7.80;99.90;;;;;;5069560;28;20322;-79
2022/01/30 09:59:11;;;;;;;0.23;0.23;;;7.70;99.90;;;;;;5081721;28;20189;-81
2022/01/30 10:01:37;;;;;;;0.60;0.60;;;7.70;99.90;;;;;;5084854;28;20209;-79
2022/01/30 10:04:05;;;;;;;0.10;0.10;;;7.70;99.90;;;;;;5088884;28;20198;-80
2022/01/30 10:06:37;;;;;;;0.37;0.30;;;7.70;99.90;;;;;;5085629;28;20182;-79
2022/01/30 10:09:26;;;;;;;0.10;0.10;;;7.60;99.90;;;;;;5067351;28;20188;-80
2022/01/30 10:12:08;;;;;;;2.33;0.73;;;7.70;99.90;;;;;;5067431;28;20210;-79
2022/01/30 10:14:34;;;;;;;0.63;0.53;;;7.80;99.90;;;;;;5067738;28;20173;-79
2022/01/30 10:17:00;;;;;;;0.10;0.10;;;7.90;99.90;;;;;;5065463;28;20188;-79
2022/01/30 10:19:25;;;;;;;0.17;0.17;;;7.80;99.90;;;;;;5066971;28;20656;-79
2022/01/30 10:22:05;;;;;;;0.10;0.10;;;7.90;99.90;;;;;;5066465;28;20279;-81
2022/01/30 10:24:36;;;;;;;0.70;0.70;;;7.90;99.90;;;;;;5065880;28;20178;-79
2022/01/30 10:27:22;;;;;;;0.10;0.10;;;7.80;99.90;;;;;;5062447;28;20209;-79
2022/01/30 10:30:10;;;;;;;0.10;0.10;;;7.80;99.90;;;;;;5061303;28;20185;-79
2022/01/30 10:32:35;;;;;;;0.30;0.10;;;7.90;99.90;;;;;;5061636;28;20200;-79
2022/01/30 10:35:07;;;;;;;0.00;0.00;;;8.00;99.90;;;;;;5062523;28;20182;-79
2022/01/30 10:37:36;;;;;;;0.33;0.33;;;8.00;99.90;;;;;;5070630;28;20559;-78
2022/01/30 10:40:16;;;;;;;0.20;0.20;;;8.00;99.90;;;;;;5064402;28;20181;-78
2022/01/30 10:42:45;;;;;;;0.30;0.30;;;8.00;99.90;;;;;;5063093;28;20179;-79
2022/01/30 10:45:23;;;;;;;0.20;0.20;;;8.00;99.90;;;;;;5061185;28;20207;-79
2022/01/30 10:47:49;;;;;;;0.30;0.30;;;7.90;99.90;;;;;;5062036;28;21280;-78
2022/01/30 10:50:22;;;;;;;0.50;0.50;;;7.90;99.90;;;;;;5062992;28;20252;-78
2022/01/30 10:52:54;;;;;;;0.33;0.20;;;8.00;99.90;;;;;;5063459;28;20201;-79
2022/01/30 10:55:38;;;;;;;0.10;0.10;;;8.10;99.90;;;;;;5061880;28;20216;-79
2022/01/30 10:58:06;;;;;;;0.00;0.00;;;8.20;99.90;;;;;;5060529;28;20234;-80
2022/01/30 11:00:46;;;;;;;0.23;0.23;;;8.20;99.90;;;;;;5060864;28;20216;-78
2022/01/30 11:03:34;;;;;;;0.10;0.10;;;8.40;99.90;;;;;;5062136;28;20203;-78
2022/01/30 11:06:00;;;;;;;0.57;0.30;;;8.50;99.90;;;;;;5058931;28;20191;-78
2022/01/30 11:08:30;;;;;;;0.20;0.20;;;8.40;99.90;;;;;;5062225;28;20295;-79
2022/01/30 11:11:02;;;;;;;0.40;0.40;;;8.60;99.90;;;;;;5062267;28;20247;-79
2022/01/30 11:13:32;;;;;;;0.40;0.30;;;8.90;99.90;;;;;;5063640;28;20194;-78
2022/01/30 11:16:56;;;;;;;1.40;0.57;;;8.80;99.90;;;;;;5064099;28;20591;-78
2022/01/30 11:18:49;;;;;;;0.20;0.20;;;8.70;99.90;;;;;;5062744;28;20188;-78
2022/01/30 11:21:22;;;;;;;0.10;0.10;;;8.80;99.90;;;;;;5062245;28;20203;-80
2022/01/30 11:23:51;;;;;;;0.10;0.10;;;8.60;99.90;;;;;;5063776;28;20181;-79
2022/01/30 11:26:17;;;;;;;0.87;0.30;;;8.50;99.90;;;;;;5061143;28;20182;-78
2022/01/30 11:28:44;;;;;;;0.00;0.00;;;8.60;99.90;;;;;;5062379;28;20409;-78
2022/01/30 11:31:12;;;;;;;0.47;0.30;;;8.30;99.90;;;;;;5061160;28;20194;-78
2022/01/30 11:33:39;;;;;;;0.20;0.20;;;8.30;99.90;;;;;;5061159;28;20175;-78
2022/01/30 11:36:06;;;;;;;0.13;0.13;;;8.40;99.90;;;;;;5062180;28;20253;-78
2022/01/30 11:38:32;;;;;;;0.20;0.20;;;8.70;99.90;;;;;;5062806;28;20209;-77
2022/01/30 11:41:19;;;;;;;0.20;0.20;;;8.70;99.90;;;;;;5062183;28;20226;-77
2022/01/30 11:44:16;;;;;;;0.20;0.20;;;8.90;99.90;;;;;;5061362;28;20177;-77
2022/01/30 11:46:41;;;;;;;0.43;0.30;;;8.70;99.90;;;;;;5061012;28;20190;-78
2022/01/30 11:49:14;;;;;;;0.20;0.20;;;8.50;99.90;;;;;;5061129;28;20195;-79
2022/01/30 11:51:54;;;;;;;0.30;0.30;;;8.40;99.90;;;;;;5062547;28;20288;-78
2022/01/30 11:54:48;;;;;;;0.10;0.10;;;8.40;99.90;;;;;;5058785;28;20187;-78
2022/01/30 11:57:22;;;;;;;0.10;0.10;;;8.40;99.90;;;;;;5062550;28;21130;-78
2022/01/30 11:59:56;;;;;;;2.00;0.63;;;8.50;99.90;;;;;;5061297;28;20194;-78
2022/01/30 12:02:35;;;;;;;3.03;1.17;;;8.40;99.90;;;;;;5062382;28;20204;-78
2022/01/30 12:05:10;;;;;;;0.37;0.37;;;8.30;99.90;;;;;;5062486;28;20220;-78
2022/01/30 12:07:37;;;;;;;0.77;0.10;;;8.30;99.90;;;;;;5062137;28;20725;-78
2022/01/30 12:10:21;;;;;;;0.20;0.20;;;8.40;99.90;;;;;;5062294;28;20208;-79
2022/01/30 12:13:04;;;;;;;0.63;0.63;;;8.50;99.90;;;;;;5063398;28;20209;-77
2022/01/30 12:15:46;;;;;;;0.40;0.40;;;8.30;99.90;;;;;;5061004;28;20190;-78
2022/01/30 12:18:17;;;;;;;0.23;0.23;;;8.40;99.90;;;;;;5063214;28;20209;-80
2022/01/30 12:21:08;;;;;;;0.20;0.20;;;8.40;99.90;;;;;;5066961;28;20189;-78
2022/01/30 12:23:36;;;;;;;0.60;0.20;;;8.50;99.90;;;;;;5065575;28;21577;-78
2022/01/30 12:26:05;;;;;;;0.23;0.23;;;8.70;99.90;;;;;;5063622;28;20180;-78
2022/01/30 12:28:42;;;;;;;0.63;0.30;;;8.50;99.90;;;;;;5063119;28;20521;-78
2022/01/30 12:31:43;;;;;;;0.50;0.30;;;8.60;99.90;;;;;;5065709;28;20279;-78
2022/01/30 12:34:09;;;;;;;0.90;0.70;;;8.80;99.90;;;;;;5033923;28;20268;-78
2022/01/30 12:36:38;;;;;;;1.27;0.97;;;8.80;99.90;;;;;;5058593;28;20663;-78
2022/01/30 12:39:16;;;;;;;0.13;0.10;;;8.90;99.90;;;;;;5064706;28;20287;-78
2022/01/30 12:41:43;;;;;;;0.50;0.40;;;8.80;99.90;;;;;;5067364;28;20194;-78
2022/01/30 12:44:15;;;;;;;0.10;0.10;;;8.90;99.90;;;;;;5063418;28;20218;-78
2022/01/30 12:46:49;;;;;;;0.47;0.20;;;8.80;99.90;;;;;;5064318;28;20186;-78
2022/01/30 12:49:27;;;;;;;0.30;0.30;;;8.80;99.90;;;;;;5065993;28;20196;-78
2022/01/30 12:51:58;;;;;;;0.83;0.50;;;8.60;99.90;;;;;;5065932;28;20673;-78
2022/01/30 12:54:40;;;;;;;4.33;2.13;;;8.60;99.90;;;;;;5064809;28;20177;-79
2022/01/30 12:57:08;;;;;;;0.10;0.10;;;8.70;99.90;;;;;;5064647;28;20546;-79
2022/01/30 12:59:34;;;;;;;0.10;0.10;;;8.60;99.90;;;;;;5065688;28;20194;-79
2022/01/30 13:02:12;;;;;;;0.20;0.20;;;8.50;99.90;;;;;;5066405;28;20198;-79
2022/01/30 13:04:37;;;;;;;0.10;0.10;;;8.70;99.90;;;;;;5068889;28;20194;-78
2022/01/30 13:07:04;;;;;;;3.77;0.77;;;8.70;99.90;;;;;;5060158;28;20189;-79
2022/01/30 13:09:31;;;;;;;1.63;1.53;;;8.50;99.90;;;;;;5059131;28;20195;-79
2022/01/30 13:12:10;;;;;;;5.93;0.83;;;8.40;99.90;;;;;;5057941;28;20217;-78
2022/01/30 13:14:37;;;;;;;0.73;0.73;;;8.50;99.90;;;;;;5063520;28;20182;-79
2022/01/30 13:17:04;;;;;;;0.17;0.17;;;8.60;99.90;;;;;;5061806;28;20675;-79
2022/01/30 13:19:38;;;;;;;0.40;0.40;;;8.80;99.90;;;;;;5062062;28;20295;-79
2022/01/30 13:22:06;;;;;;;0.57;0.57;;;8.90;99.90;;;;;;5062766;28;20204;-79
2022/01/30 13:24:32;;;;;;;0.93;0.93;;;9.00;99.90;;;;;;5061063;28;21065;-79
2022/01/30 13:27:04;;;;;;;0.20;0.20;;;8.90;99.90;;;;;;5062761;28;20193;-79
2022/01/30 13:29:34;;;;;;;3.43;0.47;;;8.80;99.90;;;;;;5062295;28;21358;-79
2022/01/30 13:32:06;;;;;;;0.07;0.07;;;8.80;99.90;;;;;;5062636;28;20243;-80
2022/01/30 13:34:33;;;;;;;1.70;0.53;;;8.70;99.90;;;;;;5060714;28;20185;-80
2022/01/30 13:37:05;;;;;;;0.40;0.40;;;8.90;99.90;;;;;;5063908;28;20188;-79
2022/01/30 13:39:44;;;;;;;0.30;0.30;;;8.90;99.90;;;;;;5061163;28;20181;-78
2022/01/30 13:42:30;;;;;;;0.40;0.40;;;8.90;99.90;;;;;;5065269;28;20200;-79
2022/01/30 13:47:41;;;;;;;0.07;0.07;;;8.80;99.90;;;;;;5066384;28;20185;-81
2022/01/30 13:50:15;;;;;;;0.73;0.57;;;8.70;99.90;;;;;;5064442;28;20190;-80
2022/01/30 13:52:41;;;;;;;2.10;0.80;;;8.80;99.90;;;;;;5066892;28;20709;-79
2022/01/30 13:55:07;;;;;;;1.30;0.70;;;8.80;99.90;;;;;;5068325;28;20278;-81
2022/01/30 13:57:37;;;;;;;0.10;0.10;;;8.70;99.90;;;;;;5065319;28;20182;-81